Time;durP1;ratioP1;P1;durP2;ratioP2;P2;SDS_P1;SDS_P2;PMS_P1;PMS_P2;Temp;Humidity;BMP_temperature;BMP_pressure;BME280_temperature;BME280_humidity;BME280_pressure;Samples;Min_cycle;Max_cycle;Signal;HPM_P1;HPM_P2
2022/09/05 00:03:07;;;;;;;2.38;2.17;;;;;;;20.61;61.30;97030.91;10547685;28;20063;-26
2022/09/05 00:08:22;;;;;;;1.88;1.77;;;;;;;20.69;60.93;97024.97;10561814;27;20476;-26
2022/09/05 00:13:27;;;;;;;2.10;2.00;;;;;;;20.68;60.99;97018.19;10551864;28;20025;-26
2022/09/05 00:19:00;;;;;;;2.78;2.00;;;;;;;20.65;61.04;97012.25;10561730;28;20462;-26
2022/09/05 00:24:13;;;;;;;2.88;2.30;;;;;;;20.59;61.01;97008.06;10555217;28;20028;-26
2022/09/05 00:29:14;;;;;;;2.15;1.83;;;;;;;20.65;60.78;97008.00;10554428;28;20035;-26
2022/09/05 00:34:51;;;;;;;3.63;1.80;;;;;;;20.68;60.86;97002.91;10560869;28;20042;-26
2022/09/05 00:40:26;;;;;;;3.05;1.90;;;;;;;20.72;60.52;97004.59;10550911;28;20281;-26
2022/09/05 00:45:33;;;;;;;2.15;1.65;;;;;;;20.65;60.73;97008.00;10556975;28;20031;-26
2022/09/05 00:50:57;;;;;;;2.42;2.00;;;;;;;20.66;60.62;97004.63;10553722;28;20040;-26
2022/09/05 00:56:18;;;;;;;3.22;1.88;;;;;;;20.76;60.26;97006.28;10548411;28;20040;-27
2022/09/05 01:01:42;;;;;;;2.33;1.63;;;;;;;20.74;60.30;97008.00;10550661;28;20050;-26
2022/09/05 01:07:01;;;;;;;2.17;1.98;;;;;;;20.66;60.46;97004.63;10553924;28;20539;-26
2022/09/05 01:12:29;;;;;;;1.90;1.65;;;;;;;20.62;60.60;97002.94;10560000;28;20039;-26
2022/09/05 01:17:51;;;;;;;4.63;1.98;;;;;;;20.61;60.45;97008.88;10557498;28;20047;-27
2022/09/05 01:23:35;;;;;;;2.10;1.90;;;;;;;20.58;60.59;97011.44;10549574;28;20044;-26
2022/09/05 01:28:41;;;;;;;3.53;1.90;;;;;;;20.56;60.53;97008.03;10558576;28;20032;-26
2022/09/05 01:33:44;;;;;;;;;;;;;;;20.56;60.30;97014.84;10545207;28;20036;-26
2022/09/05 01:39:13;;;;;;;4.90;1.98;;;;;;;20.55;60.49;97016.53;10559066;28;19911;-26
2022/09/05 01:44:49;;;;;;;2.70;2.10;;;;;;;20.60;60.28;97014.81;10507216;28;20040;-25
2022/09/05 01:49:56;;;;;;;1.52;1.42;;;;;;;20.62;60.13;97008.03;10538410;28;20115;-27
2022/09/05 01:54:59;;;;;;;2.03;1.45;;;;;;;20.58;60.22;97010.59;10554903;27;20124;-26
2022/09/05 02:00:06;;;;;;;2.15;1.95;;;;;;;20.58;59.82;97010.59;10554287;28;20039;-26
2022/09/05 02:05:23;;;;;;;2.40;1.70;;;;;;;20.56;59.94;97012.31;10556320;28;20035;-25
2022/09/05 02:10:50;;;;;;;2.00;1.35;;;;;;;20.51;59.78;96994.50;10555941;28;20588;-26
2022/09/05 02:16:09;;;;;;;2.55;1.60;;;;;;;20.52;59.79;96996.19;10539674;28;20039;-26
2022/09/05 02:21:20;;;;;;;1.60;1.48;;;;;;;20.52;59.75;97005.50;10550248;28;20031;-26
2022/09/05 02:26:31;;;;;;;3.70;1.60;;;;;;;20.52;59.63;97005.50;10557391;28;20032;-26
2022/09/05 02:31:47;;;;;;;3.20;1.52;;;;;;;20.54;59.70;96997.03;10546458;28;20451;-25
2022/09/05 02:36:59;;;;;;;3.28;1.70;;;;;;;20.57;59.52;96998.72;10538697;28;20414;-25
2022/09/05 02:42:15;;;;;;;1.98;1.80;;;;;;;20.54;59.60;96994.50;10557360;28;20169;-26
2022/09/05 02:47:22;;;;;;;2.38;1.73;;;;;;;20.51;59.37;96997.06;10546371;28;20132;-26
2022/09/05 02:52:25;;;;;;;2.65;1.48;;;;;;;20.51;59.32;96991.09;10549720;28;20035;-25
2022/09/05 02:57:28;;;;;;;4.10;1.90;;;;;;;20.50;59.28;96992.81;10550856;28;20032;-26
2022/09/05 03:02:52;;;;;;;2.00;1.55;;;;;;;20.49;59.15;96986.03;10553100;28;20584;-26
2022/09/05 03:08:21;;;;;;;1.50;1.40;;;;;;;20.48;59.26;96993.66;10541978;28;20081;-27
2022/09/05 03:13:47;;;;;;;2.65;1.90;;;;;;;20.48;59.20;96994.50;10546994;28;20036;-26
2022/09/05 03:19:12;;;;;;;2.83;1.50;;;;;;;20.48;59.03;96988.59;10543237;28;20445;-26
2022/09/05 03:24:51;;;;;;;1.80;1.70;;;;;;;20.52;59.20;96991.09;10547137;28;20043;-25
2022/09/05 03:30:11;;;;;;;1.63;1.52;;;;;;;20.50;58.94;96979.25;10542461;28;20038;-26
2022/09/05 03:35:46;;;;;;;2.58;1.90;;;;;;;20.47;59.10;96977.56;10548558;28;20031;-26
2022/09/05 03:41:02;;;;;;;1.63;1.23;;;;;;;20.48;59.09;96973.31;10553625;28;20043;-26
2022/09/05 03:46:40;;;;;;;3.55;1.80;;;;;;;20.46;58.88;96982.66;10547588;28;20435;-26
2022/09/05 03:51:59;;;;;;;1.67;1.58;;;;;;;20.44;58.97;96987.75;10553380;28;20043;-27
2022/09/05 03:57:25;;;;;;;1.83;1.50;;;;;;;20.46;58.72;96986.03;10545999;28;20032;-26
2022/09/05 04:02:30;;;;;;;4.33;1.87;;;;;;;20.43;59.08;96992.81;10523908;28;20070;-25
2022/09/05 04:07:54;;;;;;;1.65;1.48;;;;;;;20.44;59.02;96987.75;10559195;28;20583;-25
2022/09/05 04:13:06;;;;;;;1.83;1.73;;;;;;;20.50;58.89;97002.13;10557309;28;20033;-26
2022/09/05 04:18:16;;;;;;;2.22;1.60;;;;;;;20.51;58.80;96998.75;10561824;28;20093;-25
2022/09/05 04:23:35;;;;;;;1.75;1.38;;;;;;;20.47;58.78;96997.91;10552969;28;20035;-25
2022/09/05 04:28:46;;;;;;;3.25;1.58;;;;;;;20.47;58.78;96997.06;10556924;28;20036;-26
2022/09/05 04:34:21;;;;;;;1.85;1.67;;;;;;;20.45;58.56;97003.88;10548502;28;20044;-26
2022/09/05 04:39:25;;;;;;;1.90;1.80;;;;;;;20.48;59.02;97009.75;10558532;28;20119;-26
2022/09/05 04:44:50;;;;;;;1.67;1.58;;;;;;;20.48;58.64;97022.47;10546857;28;20106;-26
2022/09/05 04:49:57;;;;;;;3.20;1.60;;;;;;;20.48;58.57;97026.75;10540746;28;20041;-27
2022/09/05 04:55:19;;;;;;;1.83;1.67;;;;;;;20.50;58.81;97030.97;10556391;28;20704;-27
2022/09/05 05:00:35;;;;;;;2.05;1.73;;;;;;;20.60;58.61;97034.31;10554305;28;20081;-25
2022/09/05 05:05:47;;;;;;;10.13;1.83;;;;;;;20.58;58.18;97047.06;10555183;28;20028;-26
2022/09/05 05:10:52;;;;;;;1.83;1.52;;;;;;;20.54;58.50;97057.25;10543677;28;20154;-26
2022/09/05 05:16:00;;;;;;;1.75;1.48;;;;;;;20.54;58.52;97063.16;10552166;28;20113;-26
2022/09/05 05:21:22;;;;;;;2.45;1.35;;;;;;;20.49;58.43;97067.44;10551842;28;20688;-25
2022/09/05 05:26:35;;;;;;;2.25;1.58;;;;;;;20.53;58.49;97074.19;10556358;28;20384;-27
2022/09/05 05:31:45;;;;;;;2.72;1.50;;;;;;;20.51;58.55;97075.91;10548039;28;20115;-26
2022/09/05 05:36:51;;;;;;;2.03;1.80;;;;;;;20.46;58.50;97077.59;10537283;28;20113;-26
2022/09/05 05:41:54;;;;;;;1.92;1.73;;;;;;;20.41;58.54;97083.56;10551259;28;20495;-26
2022/09/05 05:47:01;;;;;;;1.67;1.58;;;;;;;20.46;58.57;97087.78;10558400;28;20082;-27
2022/09/05 05:52:12;;;;;;;3.17;1.70;;;;;;;20.47;58.53;97088.63;10552921;28;20036;-26
2022/09/05 05:57:25;;;;;;;2.20;1.60;;;;;;;20.47;58.65;97089.47;10547663;28;20048;-26
2022/09/05 06:02:53;;;;;;;1.83;1.60;;;;;;;20.43;58.85;97086.94;10553989;28;20523;-26
2022/09/05 06:08:12;;;;;;;1.92;1.70;;;;;;;20.43;58.92;97086.94;10542584;28;20550;-26
2022/09/05 06:13:48;;;;;;;2.83;1.38;;;;;;;20.42;58.82;97082.69;10558336;28;20042;-27
2022/09/05 06:19:28;;;;;;;1.67;1.58;;;;;;;20.43;58.74;97082.72;10542755;28;20197;-26
2022/09/05 06:25:02;;;;;;;2.22;1.67;;;;;;;20.44;58.96;97083.53;10551777;28;20031;-26
2022/09/05 06:30:08;;;;;;;3.63;1.55;;;;;;;20.44;58.71;97084.41;10537089;28;20514;-25
2022/09/05 06:35:27;;;;;;;2.40;1.58;;;;;;;20.51;58.75;97087.75;10549552;28;20503;-25
2022/09/05 06:40:52;;;;;;;2.55;1.70;;;;;;;20.60;58.72;97087.75;10555446;28;20050;-26
2022/09/05 06:46:24;;;;;;;3.55;1.70;;;;;;;20.58;58.62;97087.75;10547639;28;20042;-26
2022/09/05 06:51:36;;;;;;;2.90;1.98;;;;;;;20.54;58.81;97086.06;10553484;28;20058;-26
2022/09/05 06:56:52;;;;;;;1.40;1.30;;;;;;;20.57;58.71;97098.75;10551811;28;20059;-25
2022/09/05 07:02:15;;;;;;;1.67;1.57;;;;;;;20.59;58.81;97108.94;10542451;28;20035;-26
2022/09/05 07:07:26;;;;;;;1.67;1.58;;;;;;;20.59;58.85;97104.72;10549374;28;20304;-26
2022/09/05 07:12:41;;;;;;;3.00;1.80;;;;;;;20.56;58.86;97098.78;10550709;28;20037;-26
2022/09/05 07:17:53;;;;;;;1.60;1.40;;;;;;;20.58;58.94;97105.56;10557553;28;20035;-26
2022/09/05 07:23:05;;;;;;;2.65;1.92;;;;;;;20.65;58.87;97107.22;10555820;28;20478;-26
2022/09/05 07:28:11;;;;;;;2.53;1.75;;;;;;;20.76;58.53;97110.63;10558583;28;20066;-25
2022/09/05 07:33:17;;;;;;;1.77;1.50;;;;;;;20.78;58.46;97118.22;10550967;28;20118;-26
2022/09/05 07:38:29;;;;;;;1.60;1.50;;;;;;;20.74;58.76;97119.97;10561133;28;20491;-26
2022/09/05 07:43:40;;;;;;;3.88;1.75;;;;;;;20.70;59.08;97128.44;10560700;28;20426;-26
2022/09/05 07:48:46;;;;;;;2.03;1.70;;;;;;;20.69;58.86;97129.28;10555863;28;20023;-26
2022/09/05 07:53:47;;;;;;;3.03;1.80;;;;;;;20.71;59.07;97135.22;10558181;28;20111;-26
2022/09/05 07:58:51;;;;;;;2.00;1.80;;;;;;;20.69;59.29;97131.84;10558779;28;20118;-26
2022/09/05 08:03:56;;;;;;;1.80;1.60;;;;;;;20.72;59.08;97142.00;10554572;28;20024;-26
2022/09/05 08:09:07;;;;;;;3.00;1.60;;;;;;;20.73;59.10;97140.31;10556314;28;20396;-26
2022/09/05 08:14:26;;;;;;;3.13;1.60;;;;;;;20.90;58.77;97136.88;10558857;28;20048;-26
2022/09/05 08:19:34;;;;;;;1.70;1.52;;;;;;;21.04;58.33;97141.97;10556972;28;20032;-26
2022/09/05 08:24:46;;;;;;;1.77;1.65;;;;;;;21.00;58.35;97143.66;10557898;28;20039;-26
2022/09/05 08:30:09;;;;;;;1.70;1.60;;;;;;;20.90;58.76;97136.88;10547732;28;20039;-26
2022/09/05 08:35:24;;;;;;;1.95;1.52;;;;;;;20.89;58.58;97139.47;10553955;28;20035;-26
2022/09/05 08:40:31;;;;;;;1.50;1.40;;;;;;;20.86;58.96;97144.53;10560787;27;20027;-26
2022/09/05 08:45:43;;;;;;;1.70;1.55;;;;;;;20.89;58.95;97135.19;10542780;28;20480;-24
2022/09/05 08:50:58;;;;;;;2.00;1.60;;;;;;;20.87;58.79;97134.34;10549165;28;20038;-26
2022/09/05 08:56:28;;;;;;;1.65;1.55;;;;;;;20.88;58.80;97141.13;10549333;28;20039;-26
2022/09/05 09:01:37;;;;;;;2.70;1.63;;;;;;;20.84;59.06;97139.44;10523949;28;20043;-26
2022/09/05 09:07:15;;;;;;;1.52;1.42;;;;;;;21.13;58.52;97152.94;10541924;28;20415;-27
2022/09/05 09:12:51;;;;;;;1.83;1.60;;;;;;;21.09;58.31;97148.72;10558301;28;20039;-26
2022/09/05 09:17:52;;;;;;;1.42;1.33;;;;;;;20.97;58.79;97153.84;10557267;28;20067;-26
2022/09/05 09:23:02;;;;;;;2.92;2.20;;;;;;;20.87;59.94;97144.53;10552181;28;20072;-26
2022/09/05 09:28:41;;;;;;;2.25;1.80;;;;;;;20.85;59.24;97146.22;10553017;28;20189;-26
2022/09/05 09:34:06;;;;;;;2.60;1.92;;;;;;;20.77;61.36;97134.34;10546698;28;20716;-26
2022/09/05 09:39:38;;;;;;;2.67;1.95;;;;;;;20.78;61.89;97146.22;10555543;28;20490;-26
2022/09/05 09:45:01;;;;;;;2.25;1.83;;;;;;;20.71;63.54;97135.22;10528452;28;20534;-26
2022/09/05 09:50:21;;;;;;;3.15;2.00;;;;;;;20.85;61.30;97125.84;10551254;28;20036;-26
2022/09/05 09:55:39;;;;;;;1.83;1.70;;;;;;;21.05;59.75;97125.81;10554037;28;20024;-27
2022/09/05 10:01:07;;;;;;;1.63;1.40;;;;;;;21.17;58.70;97116.44;10538383;28;20059;-26
2022/09/05 10:06:26;;;;;;;1.60;1.50;;;;;;;21.20;58.49;97111.31;10553480;28;20055;-27
2022/09/05 10:11:38;;;;;;;1.98;1.40;;;;;;;21.17;58.64;97107.94;10553967;28;20046;-26
2022/09/05 10:17:04;;;;;;;1.50;1.40;;;;;;;21.18;58.76;97095.22;10543801;28;20047;-26
2022/09/05 10:22:29;;;;;;;5.05;2.22;;;;;;;21.07;59.21;97084.22;10549704;28;20035;-25
2022/09/05 10:27:49;;;;;;;1.83;1.48;;;;;;;21.11;58.82;97079.94;10545229;28;20028;-26
2022/09/05 10:33:28;;;;;;;1.40;1.25;;;;;;;21.15;58.94;97077.38;10554948;28;20122;-26
2022/09/05 10:38:39;;;;;;;1.90;1.52;;;;;;;21.14;59.08;97070.59;10555015;28;20039;-26
2022/09/05 10:43:49;;;;;;;1.83;1.33;;;;;;;21.31;58.71;97063.72;10537677;28;20039;-25
2022/09/05 10:48:53;;;;;;;2.80;2.17;;;;;;;21.38;58.70;97050.09;10554455;28;20051;-26
2022/09/05 10:54:17;;;;;;;3.72;1.50;;;;;;;21.20;58.92;97055.31;10549984;28;20036;-27
2022/09/05 10:59:42;;;;;;;6.35;1.85;;;;;;;21.26;59.67;97045.09;10533979;28;20575;-27
2022/09/05 11:05:07;;;;;;;3.50;1.83;;;;;;;21.33;59.01;97036.56;10543539;28;20031;-26
2022/09/05 11:10:13;;;;;;;3.75;1.70;;;;;;;21.38;59.12;97029.72;10552940;28;20047;-27
2022/09/05 11:15:29;;;;;;;3.33;2.00;;;;;;;21.39;58.85;97018.66;10548310;28;20048;-27
2022/09/05 11:21:02;;;;;;;2.85;1.83;;;;;;;21.35;58.86;97019.56;10546005;28;20140;-26
2022/09/05 11:26:06;;;;;;;3.63;1.80;;;;;;;21.43;58.82;97022.91;10546534;28;20452;-25
2022/09/05 11:31:15;;;;;;;3.10;2.17;;;;;;;21.50;59.18;97013.50;10539949;28;20039;-26
2022/09/05 11:36:28;;;;;;;2.60;1.75;;;;;;;21.54;58.44;97017.72;10547525;28;20104;-26
2022/09/05 11:41:53;;;;;;;3.45;1.63;;;;;;;21.53;59.27;97019.44;10554092;28;20415;-25
2022/09/05 11:47:28;;;;;;;4.45;1.88;;;;;;;21.50;59.17;97011.81;10542158;28;20063;-27
2022/09/05 11:52:51;;;;;;;5.55;1.73;;;;;;;21.56;58.75;97013.47;10545357;28;20044;-26
2022/09/05 11:58:27;;;;;;;3.03;2.08;;;;;;;21.57;58.45;97015.97;10538416;28;20036;-25
2022/09/05 12:03:37;;;;;;;3.30;1.92;;;;;;;21.58;58.40;97002.41;10549321;28;20050;-26
2022/09/05 12:08:55;;;;;;;4.50;1.85;;;;;;;21.60;58.17;96995.59;10551380;28;20104;-27
2022/09/05 12:14:27;;;;;;;5.28;2.47;;;;;;;21.64;58.39;96989.59;10549182;28;20032;-27
2022/09/05 12:20:06;;;;;;;9.57;2.90;;;;;;;21.66;58.51;96979.44;10555114;28;20086;-25
2022/09/05 12:25:25;;;;;;;8.95;3.10;;;;;;;21.66;58.42;96972.63;10523276;28;20047;-26
2022/09/05 12:30:29;;;;;;;4.75;2.67;;;;;;;21.63;58.49;96959.88;10558760;28;20429;-27
2022/09/05 12:35:46;;;;;;;4.43;2.88;;;;;;;21.64;58.33;96960.75;10554255;28;20074;-26
2022/09/05 12:41:05;;;;;;;3.72;1.95;;;;;;;21.64;58.50;96958.19;10549308;28;20416;-26
2022/09/05 12:46:32;;;;;;;4.45;1.77;;;;;;;21.66;58.16;96953.97;10542418;28;20036;-25
2022/09/05 12:51:39;;;;;;;2.10;1.70;;;;;;;21.62;58.34;96940.38;10557277;28;20031;-26
2022/09/05 12:56:56;;;;;;;3.92;2.45;;;;;;;21.61;58.28;96940.38;10536381;28;20314;-26
2022/09/05 13:02:06;;;;;;;4.38;2.30;;;;;;;21.56;58.23;96937.84;10554372;28;20154;-26
2022/09/05 13:07:19;;;;;;;3.92;1.75;;;;;;;21.60;58.17;96931.91;10553287;28;20028;-26
2022/09/05 13:12:26;;;;;;;2.95;1.70;;;;;;;21.63;58.24;96931.84;10557758;28;20560;-25
2022/09/05 13:17:37;;;;;;;3.28;1.85;;;;;;;21.63;58.24;96924.22;10559849;28;20047;-26
2022/09/05 13:22:39;;;;;;;2.75;1.75;;;;;;;21.62;58.41;96914.03;10553499;27;20084;-27
2022/09/05 13:27:55;;;;;;;5.07;2.00;;;;;;;21.61;58.50;96907.25;10543822;28;20495;-26
2022/09/05 13:33:01;;;;;;;4.97;1.53;;;;;;;21.47;58.77;96897.19;10550224;28;20047;-26
2022/09/05 13:38:23;;;;;;;3.83;1.90;;;;;;;21.64;58.43;96909.78;10555953;28;20027;-27
2022/09/05 13:43:30;;;;;;;3.97;1.98;;;;;;;21.69;58.38;96902.94;10555197;28;20036;-25
2022/09/05 13:48:42;;;;;;;2.97;1.88;;;;;;;21.67;58.37;96904.69;10555097;28;20028;-25
2022/09/05 13:53:50;;;;;;;3.10;2.05;;;;;;;21.73;58.33;96896.97;10551610;28;20066;-26
2022/09/05 13:59:05;;;;;;;3.40;1.95;;;;;;;21.79;58.13;96890.09;10541915;28;20070;-25
2022/09/05 14:04:25;;;;;;;2.90;2.10;;;;;;;21.76;58.35;96882.50;10556753;28;20089;-26
2022/09/05 14:09:45;;;;;;;4.65;1.70;;;;;;;21.81;58.80;96885.84;10555507;28;20122;-26
2022/09/05 14:14:52;;;;;;;4.60;2.08;;;;;;;21.82;59.35;96882.41;10539093;28;20287;-26
2022/09/05 14:25:24;;;;;;;4.03;2.70;;;;;;;21.74;60.08;96874.00;10556466;28;20079;-26
2022/09/05 14:30:40;;;;;;;5.03;2.30;;;;;;;21.73;60.15;96869.78;10551507;28;20103;-26
2022/09/05 14:35:56;;;;;;;4.57;2.17;;;;;;;21.78;59.73;96867.19;10550229;28;20027;-26
2022/09/05 14:41:34;;;;;;;6.10;2.80;;;;;;;21.80;59.72;96878.22;10549167;28;20340;-26
2022/09/05 14:46:50;;;;;;;4.72;2.00;;;;;;;21.83;59.75;96870.53;10557260;28;20055;-26
2022/09/05 14:51:51;;;;;;;4.30;2.08;;;;;;;21.85;59.66;96868.81;10547734;28;20093;-26
2022/09/05 14:56:58;;;;;;;4.72;2.10;;;;;;;21.80;59.50;96855.28;10551639;28;20035;-26
2022/09/05 15:02:17;;;;;;;2.35;1.58;;;;;;;21.88;59.42;96864.53;10547912;28;20043;-26
2022/09/05 15:07:28;;;;;;;4.90;1.73;;;;;;;21.88;59.25;96859.41;10549949;28;20458;-26
2022/09/05 15:12:30;;;;;;;4.57;1.90;;;;;;;21.84;59.46;96857.78;10549747;28;20407;-25
2022/09/05 15:17:32;;;;;;;2.65;1.80;;;;;;;21.86;59.59;96856.06;10549492;28;20036;-26
2022/09/05 15:22:40;;;;;;;3.03;2.00;;;;;;;21.89;59.67;96852.63;10549244;28;20028;-26
2022/09/05 15:27:41;;;;;;;2.70;1.85;;;;;;;21.91;59.56;96838.97;10548612;28;20031;-26
2022/09/05 15:32:42;;;;;;;4.68;2.10;;;;;;;21.92;59.25;96829.63;10543563;28;20036;-26
2022/09/05 15:37:43;;;;;;;3.70;1.83;;;;;;;21.94;59.40;96828.78;10549631;28;20492;-26
2022/09/05 15:43:02;;;;;;;2.33;2.00;;;;;;;21.94;59.51;96828.78;10559660;28;20032;-26
2022/09/05 15:48:16;;;;;;;3.83;2.10;;;;;;;21.94;59.39;96818.56;10553377;28;20031;-26
2022/09/05 15:53:21;;;;;;;3.60;1.65;;;;;;;21.87;59.55;96816.09;10558022;28;20031;-26
2022/09/05 15:58:21;;;;;;;2.70;1.83;;;;;;;21.82;59.40;96818.69;10556865;28;20644;-27
2022/09/05 16:03:29;;;;;;;3.17;2.10;;;;;;;21.89;59.18;96819.50;10558471;28;20119;-26
2022/09/05 16:08:37;;;;;;;3.10;1.80;;;;;;;21.91;58.90;96807.56;10557652;28;20369;-26
2022/09/05 16:13:43;;;;;;;2.45;1.60;;;;;;;21.90;59.55;96811.81;10545528;28;20093;-27
2022/09/05 16:18:49;;;;;;;5.45;2.40;;;;;;;21.88;59.16;96811.00;10557548;28;20032;-27
2022/09/05 16:23:55;;;;;;;2.97;2.15;;;;;;;21.90;59.12;96801.59;10552554;27;20036;-27
2022/09/05 16:29:23;;;;;;;43.55;12.10;;;;;;;21.92;59.67;96799.91;10554211;28;20067;-26
2022/09/05 16:34:42;;;;;;;29.77;12.15;;;;;;;21.88;59.65;96787.22;10552576;28;20046;-27
2022/09/05 16:39:50;;;;;;;22.10;9.73;;;;;;;21.89;59.62;96799.94;10546008;28;20038;-26
2022/09/05 16:45:00;;;;;;;15.63;7.60;;;;;;;21.90;59.19;96791.41;10556754;28;20059;-27
2022/09/05 16:50:11;;;;;;;12.35;7.18;;;;;;;21.89;59.30;96789.72;10555135;28;20560;-27
2022/09/05 16:55:18;;;;;;;11.23;6.00;;;;;;;21.89;59.42;96789.72;10556573;28;20088;-27
2022/09/05 17:00:19;;;;;;;13.23;7.47;;;;;;;21.89;59.87;96788.91;10557924;28;20124;-27
2022/09/05 17:05:44;;;;;;;17.37;8.70;;;;;;;21.90;60.13;96793.13;10555712;28;20046;-26
2022/09/05 17:11:07;;;;;;;13.27;7.65;;;;;;;21.93;59.89;96785.44;10538236;28;20044;-26
2022/09/05 17:16:19;;;;;;;12.68;8.70;;;;;;;21.85;59.68;96782.13;10558690;28;20403;-27
2022/09/05 17:21:37;;;;;;;17.60;9.73;;;;;;;21.87;60.83;96791.47;10548692;28;20055;-27
2022/09/05 17:26:40;;;;;;;27.40;11.82;;;;;;;21.90;61.72;96786.31;10558703;28;20038;-28
2022/09/05 17:31:44;;;;;;;18.02;9.32;;;;;;;21.86;61.45;96787.22;10542722;28;20090;-27
2022/09/05 17:37:08;;;;;;;17.45;9.38;;;;;;;21.81;61.63;96786.44;10551774;28;20618;-27
2022/09/05 17:42:14;;;;;;;19.73;10.38;;;;;;;21.81;61.28;96781.31;10557807;28;20636;-27
2022/09/05 17:47:17;;;;;;;;;;;;;;;21.75;60.41;96783.97;10553620;28;20023;-27
2022/09/05 17:52:20;;;;;;;11.98;5.82;;;;;;;21.63;60.12;96785.78;10550740;28;20426;-27
2022/09/05 17:57:27;;;;;;;7.97;5.40;;;;;;;21.70;60.13;96788.28;10551895;28;20555;-27
2022/09/05 18:02:29;;;;;;;;;;;;;;;21.60;59.58;96790.91;10548111;28;20040;-27
2022/09/05 18:07:39;;;;;;;6.20;3.97;;;;;;;21.50;59.88;96802.91;10544064;28;20069;-27
2022/09/05 18:12:48;;;;;;;6.57;3.67;;;;;;;21.48;59.88;96806.31;10541848;28;20409;-27
2022/09/05 18:17:52;;;;;;;5.45;3.40;;;;;;;21.39;60.18;96806.41;10543152;28;20059;-27
2022/09/05 18:23:05;;;;;;;6.07;3.80;;;;;;;21.36;60.11;96808.97;10549553;28;20054;-28
2022/09/05 18:28:27;;;;;;;5.85;3.42;;;;;;;21.28;60.41;96809.06;10546731;28;20051;-27
2022/09/05 18:33:27;;;;;;;6.57;3.72;;;;;;;21.38;60.31;96813.22;10556305;28;20043;-28
2022/09/05 18:38:28;;;;;;;4.90;2.70;;;;;;;21.30;60.50;96817.53;10547280;28;20705;-30
2022/09/05 18:43:36;;;;;;;2.97;2.63;;;;;;;21.31;60.29;96821.75;10550137;28;20458;-27
2022/09/05 18:48:47;;;;;;;4.70;2.67;;;;;;;21.37;60.34;96824.25;10546146;28;20039;-27
2022/09/05 18:53:49;;;;;;;6.43;2.85;;;;;;;21.29;60.53;96825.22;10547083;28;20043;-27
2022/09/05 18:59:08;;;;;;;2.75;2.25;;;;;;;21.26;60.34;96820.13;10546855;28;20043;-27
2022/09/05 19:04:17;;;;;;;7.78;3.30;;;;;;;21.26;60.40;96815.88;10549979;28;20503;-27
2022/09/05 19:09:27;;;;;;;6.53;2.60;;;;;;;21.25;60.59;96818.44;10546836;28;20035;-28
2022/09/05 19:14:35;;;;;;;2.42;2.00;;;;;;;21.22;60.73;96821.84;10549091;28;20040;-28
2022/09/05 19:20:12;;;;;;;3.55;2.10;;;;;;;21.19;60.70;96821.88;10554738;28;20040;-27
2022/09/05 19:25:20;;;;;;;4.72;2.63;;;;;;;21.14;60.66;96827.88;10558844;28;20516;-27
2022/09/05 19:30:30;;;;;;;3.88;2.40;;;;;;;21.13;60.78;96819.38;10539017;28;20070;-27
2022/09/05 19:35:35;;;;;;;2.80;2.05;;;;;;;21.20;60.78;96823.56;10554603;28;20036;-27
2022/09/05 19:40:39;;;;;;;3.08;2.40;;;;;;;21.15;60.83;96824.47;10562534;28;20104;-27
2022/09/05 19:45:40;;;;;;;3.05;2.13;;;;;;;21.08;60.79;96826.25;10555210;28;20039;-27
2022/09/05 19:50:43;;;;;;;2.47;2.27;;;;;;;20.98;61.41;96818.69;10559090;28;20036;-27
2022/09/05 19:55:44;;;;;;;6.82;3.17;;;;;;;20.88;62.40;96822.16;10559140;28;20154;-27
2022/09/05 20:00:46;;;;;;;5.18;3.03;;;;;;;20.90;62.85;96834.00;10552240;28;20040;-28
2022/09/05 20:05:49;;;;;;;6.10;2.40;;;;;;;20.93;62.73;96836.53;10561145;28;20034;-27
2022/09/05 20:11:01;;;;;;;6.15;2.67;;;;;;;20.95;62.38;96834.81;10561167;28;20046;-27
2022/09/05 20:16:02;;;;;;;5.45;2.47;;;;;;;20.95;62.20;96832.28;10553409;28;20028;-26
2022/09/05 20:21:09;;;;;;;2.83;2.63;;;;;;;21.05;61.73;96836.44;10556196;28;20036;-28
2022/09/05 20:26:10;;;;;;;5.32;2.88;;;;;;;21.13;61.59;96833.84;10562753;28;20494;-27
2022/09/05 20:31:18;;;;;;;4.65;2.45;;;;;;;21.06;61.44;96843.22;10558436;28;20032;-27
2022/09/05 20:36:39;;;;;;;4.47;2.67;;;;;;;21.02;61.15;96844.09;10548390;28;20040;-27
2022/09/05 20:41:40;;;;;;;3.70;2.95;;;;;;;21.02;61.11;96848.34;10545822;28;20067;-27
2022/09/05 20:46:40;;;;;;;3.20;2.40;;;;;;;20.99;61.24;96848.38;10567417;28;20498;-27
2022/09/05 20:51:45;;;;;;;6.57;2.40;;;;;;;20.97;61.17;96843.28;10557577;28;20031;-27
2022/09/05 20:56:48;;;;;;;2.30;2.10;;;;;;;20.96;60.93;96836.50;10556724;28;20410;-26
2022/09/05 21:02:03;;;;;;;4.50;2.55;;;;;;;20.96;60.83;96841.59;10558425;28;20510;-27
2022/09/05 21:07:24;;;;;;;2.75;2.10;;;;;;;21.00;60.69;96843.28;10555053;28;20480;-27
2022/09/05 21:12:32;;;;;;;4.38;3.13;;;;;;;21.05;60.56;96846.63;10564327;28;20403;-27
2022/09/05 21:17:34;;;;;;;3.78;2.13;;;;;;;21.01;60.55;96828.84;10556756;28;20031;-27
2022/09/05 21:22:44;;;;;;;6.85;2.22;;;;;;;20.99;60.55;96831.38;10555989;28;20032;-26
2022/09/05 21:27:59;;;;;;;2.78;2.22;;;;;;;20.97;60.62;96828.00;10554572;28;20487;-27
2022/09/05 21:33:10;;;;;;;3.45;2.03;;;;;;;20.96;60.43;96821.22;10554302;28;20061;-27
2022/09/05 21:38:13;;;;;;;5.95;2.05;;;;;;;20.92;60.50;96817.03;10554926;28;20036;-26
2022/09/05 21:43:13;;;;;;;2.20;2.00;;;;;;;20.91;60.45;96817.03;10554824;28;20028;-27
2022/09/05 21:48:13;;;;;;;4.30;2.40;;;;;;;20.90;60.48;96813.63;10556128;28;20490;-27
2022/09/05 21:53:24;;;;;;;2.42;1.90;;;;;;;20.87;60.23;96816.22;10555477;28;20296;-26
2022/09/05 21:58:25;;;;;;;2.10;1.98;;;;;;;20.95;60.53;96824.63;10550619;28;20036;-27
2022/09/05 22:03:25;;;;;;;2.58;2.20;;;;;;;20.96;60.22;96816.16;10556227;28;20403;-27
2022/09/05 22:08:25;;;;;;;3.45;2.08;;;;;;;20.95;60.05;96821.22;10555138;28;20035;-27
2022/09/05 22:13:29;;;;;;;3.00;2.17;;;;;;;20.93;60.04;96816.19;10556306;28;20115;-27
2022/09/05 22:18:31;;;;;;;6.22;2.83;;;;;;;20.85;60.41;96795.00;10553820;28;20119;-26
2022/09/05 22:23:33;;;;;;;2.92;2.10;;;;;;;20.81;60.28;96798.41;10551254;28;20411;-26
2022/09/05 22:28:37;;;;;;;2.20;2.00;;;;;;;20.93;59.88;96806.00;10554861;28;20115;-27
2022/09/05 22:33:37;;;;;;;2.47;2.10;;;;;;;20.92;59.89;96798.38;10563589;28;20503;-27
2022/09/05 22:38:42;;;;;;;3.23;2.40;;;;;;;20.89;60.21;96799.22;10554373;28;20035;-27
2022/09/05 22:43:43;;;;;;;3.03;2.45;;;;;;;20.91;60.18;96796.69;10548170;28;20049;-27
2022/09/05 22:48:43;;;;;;;4.60;2.72;;;;;;;20.97;59.86;96794.91;10555423;28;20453;-27
2022/09/05 22:53:43;;;;;;;2.40;2.20;;;;;;;20.97;59.60;96792.38;10553473;28;20122;-26
2022/09/05 22:58:44;;;;;;;3.57;1.80;;;;;;;20.92;59.83;96783.94;10549364;28;20660;-26
2022/09/05 23:03:44;;;;;;;2.60;2.22;;;;;;;20.89;60.01;96783.13;10553854;28;20023;-26
2022/09/05 23:08:45;;;;;;;3.57;1.97;;;;;;;20.89;60.08;96785.69;10553317;28;20028;-27
2022/09/05 23:13:45;;;;;;;5.77;2.40;;;;;;;20.90;60.25;96780.56;10554869;28;20032;-27
2022/09/05 23:18:46;;;;;;;2.45;1.85;;;;;;;20.88;60.22;96781.44;10555272;28;20039;-27
2022/09/05 23:23:46;;;;;;;2.37;2.17;;;;;;;20.89;60.29;96783.13;10549304;28;20043;-27
2022/09/05 23:28:46;;;;;;;2.92;2.05;;;;;;;20.87;60.25;96785.69;10555691;28;20293;-29
2022/09/05 23:33:47;;;;;;;2.83;2.30;;;;;;;20.92;60.22;96781.41;10545104;28;20036;-27
2022/09/05 23:38:47;;;;;;;3.87;2.30;;;;;;;20.95;60.15;96789.00;10557116;28;20662;-27
2022/09/05 23:43:47;;;;;;;4.40;2.17;;;;;;;20.94;59.94;96782.22;10550526;28;20293;-28
2022/09/05 23:48:48;;;;;;;3.10;2.20;;;;;;;20.95;59.93;96781.38;10552616;28;20036;-27
2022/09/05 23:53:48;;;;;;;3.43;2.17;;;;;;;20.97;60.08;96782.19;10551891;28;20062;-27
2022/09/05 23:58:48;;;;;;;4.03;1.93;;;;;;;20.90;60.30;96778.00;10551871;28;20035;-27
